Detall de PIREP

Printer-friendly versionPDF version

[2015/07/22 08:07:00]
Flight IATA:CT1005
Pilot Number:011
Company ICAO:CAT
Aircraft Type:B738/F
PAX:160
Departing Airport: EGGP
Destination Airport: LRCK
Alternate Airport:LROP
Online: VATSIM
Route:NANTI L10 DVR UL9 KONAN UL607 AMASI UM149 BOMBI UL984 RASPU UZ660 ROKEM UZ650 BERVA UM748 NEKUL UM747 DIRAL
Flight Level:F410
No Slew and time accel
No pause
Crash detect
Detect pilot in Cockpit between each 30 and 45 minutes
08:07 Zero fuel Weight: 137491 Lbs, Fuel Weight: 25793 Lbs
08:07 VATSIM:EGGP 220750Z VRB03KT 9999 FEW025 BKN037 14/12 Q1013
08:07 VATSIM:LRCK 220800Z VRB02KT CAVOK 30/08 Q1018 NOSIG
08:11 Parking Brakes off
08:19 Take-off
08:19 Take off Weight: 162552 Lbs
08:19 Wind: 181º @ 004 Knots Heading: 087º
08:19 POS N53º 20´ 01´´ W002º 50´ 38´´
08:20 Gear Up: 162 Knots
08:20 Flaps:5 at 162 Knots
08:21 Flaps:4 at 196 Knots
08:21 Flaps:3 at 224 Knots
08:22Flaps:2 at 231 Knots
08:22 Flaps:1 at 232 Knots
08:22 Flaps:0 at 233 Knots
08:35 Wind:221º@034 Knots Heading: 131º Ground Speed: 390 Knots Altitude 31624 ft
08:49 TOC
08:49 Fuel Weight: 20154 Lb
08:50 Wind:221º@040 Knots Heading: 128º Ground Speed: 472 Knots Altitude 41026 ft
09:05 Wind:254º@027 Knots Heading: 109º Ground Speed: 500 Knots Altitude 41082 ft
09:20 Wind:324º@019 Knots Heading: 101º Ground Speed: 497 Knots Altitude 41085 ft
09:35 Wind:163º@008 Knots Heading: 110º Ground Speed: 489 Knots Altitude 41053 ft
09:50 Wind:200º@003 Knots Heading: 103º Ground Speed: 488 Knots Altitude 41085 ft
10:05 Wind:114º@010 Knots Heading: 107º Ground Speed: 480 Knots Altitude 41099 ft
10:20 Wind:201º@025 Knots Heading: 132º Ground Speed: 484 Knots Altitude 41085 ft
10:35 Wind:189º@016 Knots Heading: 129º Ground Speed: 482 Knots Altitude 41115 ft
10:50 Wind:122º@016 Knots Heading: 104º Ground Speed: 475 Knots Altitude 41141 ft
11:00 TOD
11:00 Fuel Weight: 9237 Lb
11:05 Wind:055º@011 Knots Heading: 105º Ground Speed: 429 Knots Altitude 34146 ft
11:20 Wind:132º@025 Knots Heading: 110º Ground Speed: 324 Knots Altitude 9977 ft
11:24 Flaps:1 at 293 Knots
11:24 Flaps:2 at 281 Knots
11:24 Flaps:3 at 280 Knots
11:25 Flaps:4 at 255 Knots
11:25 Flaps:5 at 215 Knots
11:26 Flaps:6 at 176 Knots
11:26 Gear Down: 176 Knots
11:27 Flaps:7 at 156 Knots
11:29 Flaps:8 at 150 Knots
11:34 TouchDown:Rate -389 ft/min Speed: 127 Knots
11:34 VATSIM:LRCK 221100Z 13011KT CAVOK 30/13 Q1017 NOSIG
11:34 Land
11:34 Wind:126º@011 Knots
11:34 Heading: 183º
11:34 Flight Duration: 03:14
11:34 Landing Weight: 144452 Lbs
11:34 POS N44º 21´ 35´´ E028º 29´ 17´´
11:36 Parking brakes on
11:36 Block to Block Duration: 03:25
11:36 Final Fuel: 6832 Lbls
11:36 Spent Fuel: 18961 Lbls
11:36 Flight Length: 1194 NM
11:36 TOD Land Length: 95 NM

Exportar CSV

Powered by Drupal - Modified by Danger4k